sensor_id;sensor_type;location;lat;lon;timestamp;temperature;humidity
33699;DHT22;20032;52.436;13.312;2023-12-07T00:00:29;2.10;99.90
33699;DHT22;20032;52.436;13.312;2023-12-07T00:02:54;2.10;99.90
33699;DHT22;20032;52.436;13.312;2023-12-07T00:05:20;2.10;99.90
33699;DHT22;20032;52.436;13.312;2023-12-07T00:07:45;2.10;99.90
33699;DHT22;20032;52.436;13.312;2023-12-07T00:10:11;2.10;99.90
33699;DHT22;20032;52.436;13.312;2023-12-07T00:12:36;2.10;99.90
33699;DHT22;20032;52.436;13.312;2023-12-07T00:15:02;2.10;99.90
33699;DHT22;20032;52.436;13.312;2023-12-07T00:17:28;2.20;99.90
33699;DHT22;20032;52.436;13.312;2023-12-07T00:19:53;2.20;99.90
33699;DHT22;20032;52.436;13.312;2023-12-07T00:22:19;2.10;99.90
33699;DHT22;20032;52.436;13.312;2023-12-07T00:24:45;2.10;99.90
33699;DHT22;20032;52.436;13.312;2023-12-07T00:27:10;2.20;99.90
33699;DHT22;20032;52.436;13.312;2023-12-07T00:29:37;2.20;99.90
33699;DHT22;20032;52.436;13.312;2023-12-07T00:32:04;2.20;99.90
33699;DHT22;20032;52.436;13.312;2023-12-07T00:34:30;2.20;99.90
33699;DHT22;20032;52.436;13.312;2023-12-07T00:36:55;2.20;99.90
33699;DHT22;20032;52.436;13.312;2023-12-07T00:39:21;2.20;99.90
33699;DHT22;20032;52.436;13.312;2023-12-07T00:41:46;2.20;99.90
33699;DHT22;20032;52.436;13.312;2023-12-07T00:44:13;2.00;99.90
33699;DHT22;20032;52.436;13.312;2023-12-07T00:46:39;1.90;99.90
33699;DHT22;20032;52.436;13.312;2023-12-07T00:49:05;1.90;99.90
33699;DHT22;20032;52.436;13.312;2023-12-07T00:51:30;2.00;99.90
33699;DHT22;20032;52.436;13.312;2023-12-07T00:53:56;2.00;99.90
33699;DHT22;20032;52.436;13.312;2023-12-07T00:56:21;2.00;99.90
33699;DHT22;20032;52.436;13.312;2023-12-07T00:58:47;2.00;99.90
33699;DHT22;20032;52.436;13.312;2023-12-07T01:01:12;2.10;99.90
33699;DHT22;20032;52.436;13.312;2023-12-07T01:03:38;2.20;99.90
33699;DHT22;20032;52.436;13.312;2023-12-07T01:06:06;2.20;99.90
33699;DHT22;20032;52.436;13.312;2023-12-07T01:08:31;2.00;99.90
33699;DHT22;20032;52.436;13.312;2023-12-07T01:10:57;1.90;99.90
33699;DHT22;20032;52.436;13.312;2023-12-07T01:13:22;1.90;99.90
33699;DHT22;20032;52.436;13.312;2023-12-07T01:15:49;2.00;99.90
33699;DHT22;20032;52.436;13.312;2023-12-07T01:18:14;1.90;99.90
33699;DHT22;20032;52.436;13.312;2023-12-07T01:20:40;1.90;99.90
33699;DHT22;20032;52.436;13.312;2023-12-07T01:23:05;2.00;99.90
33699;DHT22;20032;52.436;13.312;2023-12-07T01:25:30;2.10;99.90
33699;DHT22;20032;52.436;13.312;2023-12-07T01:27:56;2.00;99.90
33699;DHT22;20032;52.436;13.312;2023-12-07T01:30:22;1.90;99.90
33699;DHT22;20032;52.436;13.312;2023-12-07T01:32:47;2.00;99.90
33699;DHT22;20032;52.436;13.312;2023-12-07T01:35:13;2.00;99.90
33699;DHT22;20032;52.436;13.312;2023-12-07T01:37:38;2.00;99.90
33699;DHT22;20032;52.436;13.312;2023-12-07T01:40:04;2.00;99.90
33699;DHT22;20032;52.436;13.312;2023-12-07T01:42:34;2.10;99.90
33699;DHT22;20032;52.436;13.312;2023-12-07T01:45:00;2.10;99.90
33699;DHT22;20032;52.436;13.312;2023-12-07T01:47:26;2.10;99.90
33699;DHT22;20032;52.436;13.312;2023-12-07T01:49:52;2.10;99.90
33699;DHT22;20032;52.436;13.312;2023-12-07T01:52:17;2.10;99.90
33699;DHT22;20032;52.436;13.312;2023-12-07T01:54:44;2.10;99.90
33699;DHT22;20032;52.436;13.312;2023-12-07T01:57:09;2.10;99.90
33699;DHT22;20032;52.436;13.312;2023-12-07T01:59:35;2.10;99.90
33699;DHT22;20032;52.436;13.312;2023-12-07T02:02:00;2.10;99.90
33699;DHT22;20032;52.436;13.312;2023-12-07T02:04:26;2.00;99.90
33699;DHT22;20032;52.436;13.312;2023-12-07T02:06:54;2.10;99.90
33699;DHT22;20032;52.436;13.312;2023-12-07T02:09:22;2.10;99.90
33699;DHT22;20032;52.436;13.312;2023-12-07T02:11:47;2.10;99.90
33699;DHT22;20032;52.436;13.312;2023-12-07T02:14:13;2.00;99.90
33699;DHT22;20032;52.436;13.312;2023-12-07T02:16:45;2.00;99.90
33699;DHT22;20032;52.436;13.312;2023-12-07T02:20:16;2.00;99.90
33699;DHT22;20032;52.436;13.312;2023-12-07T02:22:02;2.10;99.90
33699;DHT22;20032;52.436;13.312;2023-12-07T02:24:33;2.00;99.90
33699;DHT22;20032;52.436;13.312;2023-12-07T02:26:59;2.00;99.90
33699;DHT22;20032;52.436;13.312;2023-12-07T02:29:24;2.10;99.90
33699;DHT22;20032;52.436;13.312;2023-12-07T02:31:50;2.10;99.90
33699;DHT22;20032;52.436;13.312;2023-12-07T02:34:15;2.10;99.90
33699;DHT22;20032;52.436;13.312;2023-12-07T02:36:43;2.10;99.90
33699;DHT22;20032;52.436;13.312;2023-12-07T02:39:09;2.10;99.90
33699;DHT22;20032;52.436;13.312;2023-12-07T02:41:38;2.20;99.90
33699;DHT22;20032;52.436;13.312;2023-12-07T02:44:05;2.20;99.90
33699;DHT22;20032;52.436;13.312;2023-12-07T02:46:30;2.20;99.90
33699;DHT22;20032;52.436;13.312;2023-12-07T02:48:57;2.20;99.90
33699;DHT22;20032;52.436;13.312;2023-12-07T02:51:23;2.10;99.90
33699;DHT22;20032;52.436;13.312;2023-12-07T02:53:49;2.20;99.90
33699;DHT22;20032;52.436;13.312;2023-12-07T02:56:14;2.20;99.90
33699;DHT22;20032;52.436;13.312;2023-12-07T02:58:40;2.10;99.90
33699;DHT22;20032;52.436;13.312;2023-12-07T03:01:05;2.10;99.90
33699;DHT22;20032;52.436;13.312;2023-12-07T03:03:31;2.20;99.90
33699;DHT22;20032;52.436;13.312;2023-12-07T03:05:56;2.10;99.90
33699;DHT22;20032;52.436;13.312;2023-12-07T03:08:22;2.10;99.90
33699;DHT22;20032;52.436;13.312;2023-12-07T03:10:47;2.10;99.90
33699;DHT22;20032;52.436;13.312;2023-12-07T03:13:13;2.10;99.90
33699;DHT22;20032;52.436;13.312;2023-12-07T03:15:38;2.10;99.90
33699;DHT22;20032;52.436;13.312;2023-12-07T03:18:04;2.10;99.90
33699;DHT22;20032;52.436;13.312;2023-12-07T03:20:31;2.10;99.90
33699;DHT22;20032;52.436;13.312;2023-12-07T03:22:56;2.10;99.90
33699;DHT22;20032;52.436;13.312;2023-12-07T03:25:21;2.10;99.90
33699;DHT22;20032;52.436;13.312;2023-12-07T03:27:47;2.10;99.90
33699;DHT22;20032;52.436;13.312;2023-12-07T03:30:13;2.10;99.90
33699;DHT22;20032;52.436;13.312;2023-12-07T03:32:38;2.00;99.90
33699;DHT22;20032;52.436;13.312;2023-12-07T03:35:04;2.00;99.90
33699;DHT22;20032;52.436;13.312;2023-12-07T03:37:29;2.00;99.90
33699;DHT22;20032;52.436;13.312;2023-12-07T03:39:55;2.00;99.90
33699;DHT22;20032;52.436;13.312;2023-12-07T03:42:20;2.00;99.90
33699;DHT22;20032;52.436;13.312;2023-12-07T03:44:46;2.00;99.90
33699;DHT22;20032;52.436;13.312;2023-12-07T03:47:11;2.00;99.90
33699;DHT22;20032;52.436;13.312;2023-12-07T03:49:37;2.10;99.90
33699;DHT22;20032;52.436;13.312;2023-12-07T03:52:04;2.10;99.90
33699;DHT22;20032;52.436;13.312;2023-12-07T03:54:30;2.10;99.90
33699;DHT22;20032;52.436;13.312;2023-12-07T03:56:55;2.10;99.90
33699;DHT22;20032;52.436;13.312;2023-12-07T03:59:20;2.10;99.90
33699;DHT22;20032;52.436;13.312;2023-12-07T04:01:46;2.10;99.90
33699;DHT22;20032;52.436;13.312;2023-12-07T04:04:11;2.00;99.90
33699;DHT22;20032;52.436;13.312;2023-12-07T04:06:37;2.00;99.90
33699;DHT22;20032;52.436;13.312;2023-12-07T04:09:02;2.00;99.90
33699;DHT22;20032;52.436;13.312;2023-12-07T04:11:29;2.00;99.90
33699;DHT22;20032;52.436;13.312;2023-12-07T04:13:55;2.10;99.90
33699;DHT22;20032;52.436;13.312;2023-12-07T04:16:20;2.10;99.90
33699;DHT22;20032;52.436;13.312;2023-12-07T04:18:46;2.10;99.90
33699;DHT22;20032;52.436;13.312;2023-12-07T04:21:11;2.10;99.90
33699;DHT22;20032;52.436;13.312;2023-12-07T04:23:37;2.20;99.90
33699;DHT22;20032;52.436;13.312;2023-12-07T04:26:02;2.20;99.90
33699;DHT22;20032;52.436;13.312;2023-12-07T04:28:28;2.20;99.90
33699;DHT22;20032;52.436;13.312;2023-12-07T04:30:53;2.30;99.90
33699;DHT22;20032;52.436;13.312;2023-12-07T04:33:19;2.30;99.90
33699;DHT22;20032;52.436;13.312;2023-12-07T04:35:45;2.20;99.90
33699;DHT22;20032;52.436;13.312;2023-12-07T04:38:10;2.20;99.90
33699;DHT22;20032;52.436;13.312;2023-12-07T04:40:35;2.20;99.90
33699;DHT22;20032;52.436;13.312;2023-12-07T04:43:01;2.20;99.90
33699;DHT22;20032;52.436;13.312;2023-12-07T04:45:26;2.20;99.90
33699;DHT22;20032;52.436;13.312;2023-12-07T04:47:52;2.20;99.90
33699;DHT22;20032;52.436;13.312;2023-12-07T04:50:17;2.20;99.90
33699;DHT22;20032;52.436;13.312;2023-12-07T04:52:43;2.20;99.90
33699;DHT22;20032;52.436;13.312;2023-12-07T04:55:08;2.20;99.90
33699;DHT22;20032;52.436;13.312;2023-12-07T04:57:35;2.20;99.90
33699;DHT22;20032;52.436;13.312;2023-12-07T05:00:01;2.10;99.90
33699;DHT22;20032;52.436;13.312;2023-12-07T05:02:31;2.10;99.90
33699;DHT22;20032;52.436;13.312;2023-12-07T05:04:57;2.10;99.90
33699;DHT22;20032;52.436;13.312;2023-12-07T05:07:22;2.10;99.90
33699;DHT22;20032;52.436;13.312;2023-12-07T05:09:48;2.10;99.90
33699;DHT22;20032;52.436;13.312;2023-12-07T05:12:16;2.20;99.90
33699;DHT22;20032;52.436;13.312;2023-12-07T05:14:41;2.10;99.90
33699;DHT22;20032;52.436;13.312;2023-12-07T05:17:07;2.00;99.90
33699;DHT22;20032;52.436;13.312;2023-12-07T05:19:32;2.10;99.90
33699;DHT22;20032;52.436;13.312;2023-12-07T05:21:57;2.00;99.90
33699;DHT22;20032;52.436;13.312;2023-12-07T05:24:23;2.10;99.90
33699;DHT22;20032;52.436;13.312;2023-12-07T05:26:48;2.20;99.90
33699;DHT22;20032;52.436;13.312;2023-12-07T05:29:14;2.20;99.90
33699;DHT22;20032;52.436;13.312;2023-12-07T05:31:40;2.20;99.90
33699;DHT22;20032;52.436;13.312;2023-12-07T05:34:07;2.20;99.90
33699;DHT22;20032;52.436;13.312;2023-12-07T05:36:32;2.30;99.90
33699;DHT22;20032;52.436;13.312;2023-12-07T05:38:58;2.20;99.90
33699;DHT22;20032;52.436;13.312;2023-12-07T05:41:24;2.20;99.90
33699;DHT22;20032;52.436;13.312;2023-12-07T05:43:51;2.10;99.90
33699;DHT22;20032;52.436;13.312;2023-12-07T05:46:16;2.10;99.90
33699;DHT22;20032;52.436;13.312;2023-12-07T05:48:42;2.20;99.90
33699;DHT22;20032;52.436;13.312;2023-12-07T05:51:16;2.20;99.90
33699;DHT22;20032;52.436;13.312;2023-12-07T05:53:42;2.10;99.90
33699;DHT22;20032;52.436;13.312;2023-12-07T05:56:08;2.10;99.90
33699;DHT22;20032;52.436;13.312;2023-12-07T05:58:33;2.10;99.90
33699;DHT22;20032;52.436;13.312;2023-12-07T06:01:00;2.10;99.90
33699;DHT22;20032;52.436;13.312;2023-12-07T06:03:26;2.10;99.90
33699;DHT22;20032;52.436;13.312;2023-12-07T06:05:51;2.20;99.90
33699;DHT22;20032;52.436;13.312;2023-12-07T06:08:17;2.30;99.90
33699;DHT22;20032;52.436;13.312;2023-12-07T06:10:43;2.30;99.90
33699;DHT22;20032;52.436;13.312;2023-12-07T06:13:08;2.30;99.90
33699;DHT22;20032;52.436;13.312;2023-12-07T06:15:34;2.30;99.90
33699;DHT22;20032;52.436;13.312;2023-12-07T06:17:59;2.30;99.90
33699;DHT22;20032;52.436;13.312;2023-12-07T06:20:25;2.30;99.90
33699;DHT22;20032;52.436;13.312;2023-12-07T06:22:50;2.30;99.90
33699;DHT22;20032;52.436;13.312;2023-12-07T06:25:16;2.20;99.90
33699;DHT22;20032;52.436;13.312;2023-12-07T06:27:41;2.30;99.90
33699;DHT22;20032;52.436;13.312;2023-12-07T06:30:07;2.30;99.90
33699;DHT22;20032;52.436;13.312;2023-12-07T06:32:33;2.30;99.90
33699;DHT22;20032;52.436;13.312;2023-12-07T06:34:59;2.30;99.90
33699;DHT22;20032;52.436;13.312;2023-12-07T06:37:25;2.30;99.90
33699;DHT22;20032;52.436;13.312;2023-12-07T06:39:50;2.30;99.90
33699;DHT22;20032;52.436;13.312;2023-12-07T06:42:16;2.30;99.90
33699;DHT22;20032;52.436;13.312;2023-12-07T06:44:49;2.30;99.90
33699;DHT22;20032;52.436;13.312;2023-12-07T06:47:15;2.30;99.90
33699;DHT22;20032;52.436;13.312;2023-12-07T06:49:40;2.30;99.90
33699;DHT22;20032;52.436;13.312;2023-12-07T06:52:06;2.30;99.90
33699;DHT22;20032;52.436;13.312;2023-12-07T06:54:31;2.30;99.90
33699;DHT22;20032;52.436;13.312;2023-12-07T06:56:57;2.30;99.90
33699;DHT22;20032;52.436;13.312;2023-12-07T06:59:22;2.20;99.90
33699;DHT22;20032;52.436;13.312;2023-12-07T07:01:48;2.20;99.90
33699;DHT22;20032;52.436;13.312;2023-12-07T07:04:14;2.20;99.90
33699;DHT22;20032;52.436;13.312;2023-12-07T07:06:40;2.20;99.90
33699;DHT22;20032;52.436;13.312;2023-12-07T07:09:08;2.20;99.90
33699;DHT22;20032;52.436;13.312;2023-12-07T07:11:33;2.20;99.90
33699;DHT22;20032;52.436;13.312;2023-12-07T07:14:00;2.20;99.90
33699;DHT22;20032;52.436;13.312;2023-12-07T07:16:26;2.20;99.90
33699;DHT22;20032;52.436;13.312;2023-12-07T07:18:52;2.10;99.90
33699;DHT22;20032;52.436;13.312;2023-12-07T07:21:18;2.20;99.90
33699;DHT22;20032;52.436;13.312;2023-12-07T07:23:45;2.30;99.90
33699;DHT22;20032;52.436;13.312;2023-12-07T07:26:10;2.20;99.90
33699;DHT22;20032;52.436;13.312;2023-12-07T07:28:36;2.20;99.90
33699;DHT22;20032;52.436;13.312;2023-12-07T07:31:01;2.10;99.90
33699;DHT22;20032;52.436;13.312;2023-12-07T07:33:28;2.10;99.90
33699;DHT22;20032;52.436;13.312;2023-12-07T07:35:53;2.10;99.90
33699;DHT22;20032;52.436;13.312;2023-12-07T07:38:19;2.10;99.90
33699;DHT22;20032;52.436;13.312;2023-12-07T07:40:44;2.00;99.90
33699;DHT22;20032;52.436;13.312;2023-12-07T07:43:10;2.10;99.90
33699;DHT22;20032;52.436;13.312;2023-12-07T07:45:36;2.10;99.90
33699;DHT22;20032;52.436;13.312;2023-12-07T07:48:01;2.20;99.90
33699;DHT22;20032;52.436;13.312;2023-12-07T07:50:27;2.20;99.90
33699;DHT22;20032;52.436;13.312;2023-12-07T07:52:54;2.20;99.90
33699;DHT22;20032;52.436;13.312;2023-12-07T07:55:20;2.20;99.90
33699;DHT22;20032;52.436;13.312;2023-12-07T07:57:46;2.30;99.90
33699;DHT22;20032;52.436;13.312;2023-12-07T08:00:13;2.30;99.90
33699;DHT22;20032;52.436;13.312;2023-12-07T08:02:39;2.40;99.90
33699;DHT22;20032;52.436;13.312;2023-12-07T08:05:05;2.40;99.90
33699;DHT22;20032;52.436;13.312;2023-12-07T08:07:30;2.30;99.90
33699;DHT22;20032;52.436;13.312;2023-12-07T08:09:56;2.20;99.90
33699;DHT22;20032;52.436;13.312;2023-12-07T08:12:21;2.20;99.90
33699;DHT22;20032;52.436;13.312;2023-12-07T08:14:49;2.10;99.90
33699;DHT22;20032;52.436;13.312;2023-12-07T08:17:14;2.10;99.90
33699;DHT22;20032;52.436;13.312;2023-12-07T08:19:41;2.30;99.90
33699;DHT22;20032;52.436;13.312;2023-12-07T08:22:07;2.30;99.90
33699;DHT22;20032;52.436;13.312;2023-12-07T08:24:33;2.30;99.90
33699;DHT22;20032;52.436;13.312;2023-12-07T08:26:59;2.30;99.90
33699;DHT22;20032;52.436;13.312;2023-12-07T08:29:24;2.30;99.90
33699;DHT22;20032;52.436;13.312;2023-12-07T08:31:50;2.30;99.90
33699;DHT22;20032;52.436;13.312;2023-12-07T08:34:16;2.30;99.90
33699;DHT22;20032;52.436;13.312;2023-12-07T08:36:42;2.40;99.90
33699;DHT22;20032;52.436;13.312;2023-12-07T08:39:07;2.40;99.90
33699;DHT22;20032;52.436;13.312;2023-12-07T08:41:35;2.30;99.90
33699;DHT22;20032;52.436;13.312;2023-12-07T08:44:01;2.40;99.90
33699;DHT22;20032;52.436;13.312;2023-12-07T08:46:27;2.40;99.90
33699;DHT22;20032;52.436;13.312;2023-12-07T08:48:53;2.40;99.90
33699;DHT22;20032;52.436;13.312;2023-12-07T08:51:19;2.50;99.90
33699;DHT22;20032;52.436;13.312;2023-12-07T08:53:44;2.60;99.90
33699;DHT22;20032;52.436;13.312;2023-12-07T08:56:10;2.50;99.90
33699;DHT22;20032;52.436;13.312;2023-12-07T08:58:38;2.40;99.90
33699;DHT22;20032;52.436;13.312;2023-12-07T09:01:04;2.40;99.90
33699;DHT22;20032;52.436;13.312;2023-12-07T09:03:30;2.50;99.90
33699;DHT22;20032;52.436;13.312;2023-12-07T09:05:57;2.40;99.90
33699;DHT22;20032;52.436;13.312;2023-12-07T09:08:23;2.50;99.90
33699;DHT22;20032;52.436;13.312;2023-12-07T09:10:48;2.40;99.90
33699;DHT22;20032;52.436;13.312;2023-12-07T09:13:17;2.40;99.90
33699;DHT22;20032;52.436;13.312;2023-12-07T09:15:43;2.50;99.90
33699;DHT22;20032;52.436;13.312;2023-12-07T09:18:09;2.50;99.90
33699;DHT22;20032;52.436;13.312;2023-12-07T09:20:36;2.40;99.90
33699;DHT22;20032;52.436;13.312;2023-12-07T09:23:03;2.50;99.90
33699;DHT22;20032;52.436;13.312;2023-12-07T09:25:28;2.50;99.90
33699;DHT22;20032;52.436;13.312;2023-12-07T09:27:55;2.60;99.90
33699;DHT22;20032;52.436;13.312;2023-12-07T09:30:21;2.50;99.90
33699;DHT22;20032;52.436;13.312;2023-12-07T09:32:47;2.50;99.90
33699;DHT22;20032;52.436;13.312;2023-12-07T09:35:13;2.60;99.90
33699;DHT22;20032;52.436;13.312;2023-12-07T09:37:41;2.50;99.90
33699;DHT22;20032;52.436;13.312;2023-12-07T09:40:07;2.50;99.90
33699;DHT22;20032;52.436;13.312;2023-12-07T09:42:33;2.40;99.90
33699;DHT22;20032;52.436;13.312;2023-12-07T09:44:59;2.50;99.90
33699;DHT22;20032;52.436;13.312;2023-12-07T09:47:28;2.50;99.90
33699;DHT22;20032;52.436;13.312;2023-12-07T09:49:55;2.50;99.90
33699;DHT22;20032;52.436;13.312;2023-12-07T09:52:21;2.50;99.90
33699;DHT22;20032;52.436;13.312;2023-12-07T09:54:48;2.50;99.90
33699;DHT22;20032;52.436;13.312;2023-12-07T09:57:15;2.50;99.90
33699;DHT22;20032;52.436;13.312;2023-12-07T09:59:41;2.40;99.90
33699;DHT22;20032;52.436;13.312;2023-12-07T10:02:07;2.40;99.90
33699;DHT22;20032;52.436;13.312;2023-12-07T10:04:33;2.40;99.90
33699;DHT22;20032;52.436;13.312;2023-12-07T10:06:59;2.50;99.90
33699;DHT22;20032;52.436;13.312;2023-12-07T10:09:25;2.50;99.90
33699;DHT22;20032;52.436;13.312;2023-12-07T10:12:02;2.50;99.90
33699;DHT22;20032;52.436;13.312;2023-12-07T10:14:28;2.50;99.90
33699;DHT22;20032;52.436;13.312;2023-12-07T10:16:54;2.50;99.90
33699;DHT22;20032;52.436;13.312;2023-12-07T10:19:21;2.50;99.90
33699;DHT22;20032;52.436;13.312;2023-12-07T10:21:50;2.50;99.90
33699;DHT22;20032;52.436;13.312;2023-12-07T10:24:17;2.50;99.90
33699;DHT22;20032;52.436;13.312;2023-12-07T10:26:44;2.60;99.90
33699;DHT22;20032;52.436;13.312;2023-12-07T10:29:10;2.60;99.90
33699;DHT22;20032;52.436;13.312;2023-12-07T10:31:36;2.50;99.90
33699;DHT22;20032;52.436;13.312;2023-12-07T10:34:03;2.50;99.90
33699;DHT22;20032;52.436;13.312;2023-12-07T10:36:29;2.60;99.90
33699;DHT22;20032;52.436;13.312;2023-12-07T10:38:55;2.60;99.90
33699;DHT22;20032;52.436;13.312;2023-12-07T10:41:23;2.60;99.90
33699;DHT22;20032;52.436;13.312;2023-12-07T10:43:54;2.60;99.90
33699;DHT22;20032;52.436;13.312;2023-12-07T10:46:23;2.70;99.90
33699;DHT22;20032;52.436;13.312;2023-12-07T10:48:51;2.70;99.90
33699;DHT22;20032;52.436;13.312;2023-12-07T10:51:40;2.70;99.90
33699;DHT22;20032;52.436;13.312;2023-12-07T10:54:07;2.70;99.90
33699;DHT22;20032;52.436;13.312;2023-12-07T10:56:39;2.80;99.90
33699;DHT22;20032;52.436;13.312;2023-12-07T10:59:08;2.70;99.90
33699;DHT22;20032;52.436;13.312;2023-12-07T11:01:38;2.70;99.90
33699;DHT22;20032;52.436;13.312;2023-12-07T11:04:05;2.70;99.90
33699;DHT22;20032;52.436;13.312;2023-12-07T11:06:31;2.70;99.90
33699;DHT22;20032;52.436;13.312;2023-12-07T11:09:00;2.70;99.90
33699;DHT22;20032;52.436;13.312;2023-12-07T11:11:39;2.80;99.90
33699;DHT22;20032;52.436;13.312;2023-12-07T11:14:07;2.70;99.90
33699;DHT22;20032;52.436;13.312;2023-12-07T11:16:35;2.80;99.90
33699;DHT22;20032;52.436;13.312;2023-12-07T11:19:01;2.80;99.90
33699;DHT22;20032;52.436;13.312;2023-12-07T11:21:27;2.70;99.90
33699;DHT22;20032;52.436;13.312;2023-12-07T11:23:53;2.80;99.90
33699;DHT22;20032;52.436;13.312;2023-12-07T11:26:22;2.80;99.90
33699;DHT22;20032;52.436;13.312;2023-12-07T11:28:48;2.80;99.90
33699;DHT22;20032;52.436;13.312;2023-12-07T11:31:15;2.70;99.90
33699;DHT22;20032;52.436;13.312;2023-12-07T11:33:41;2.70;99.90
33699;DHT22;20032;52.436;13.312;2023-12-07T11:36:09;2.80;99.90
33699;DHT22;20032;52.436;13.312;2023-12-07T11:38:37;2.80;99.90
33699;DHT22;20032;52.436;13.312;2023-12-07T11:41:03;2.80;99.90
33699;DHT22;20032;52.436;13.312;2023-12-07T11:43:40;2.80;99.90
33699;DHT22;20032;52.436;13.312;2023-12-07T11:46:07;2.80;99.90
33699;DHT22;20032;52.436;13.312;2023-12-07T11:48:32;2.80;99.90
33699;DHT22;20032;52.436;13.312;2023-12-07T11:51:05;2.80;99.90
33699;DHT22;20032;52.436;13.312;2023-12-07T11:53:34;2.80;99.90
33699;DHT22;20032;52.436;13.312;2023-12-07T11:56:03;2.80;99.90
33699;DHT22;20032;52.436;13.312;2023-12-07T11:58:31;2.70;99.90
33699;DHT22;20032;52.436;13.312;2023-12-07T12:00:57;2.80;99.90
33699;DHT22;20032;52.436;13.312;2023-12-07T12:03:24;2.70;99.90
33699;DHT22;20032;52.436;13.312;2023-12-07T12:05:50;2.70;99.90
33699;DHT22;20032;52.436;13.312;2023-12-07T12:08:17;2.80;99.90
33699;DHT22;20032;52.436;13.312;2023-12-07T12:10:44;2.80;99.90
33699;DHT22;20032;52.436;13.312;2023-12-07T12:13:09;2.80;99.90
33699;DHT22;20032;52.436;13.312;2023-12-07T12:15:35;2.70;99.90
33699;DHT22;20032;52.436;13.312;2023-12-07T12:18:01;2.70;99.90
33699;DHT22;20032;52.436;13.312;2023-12-07T12:20:27;2.60;99.90
33699;DHT22;20032;52.436;13.312;2023-12-07T12:22:53;2.70;99.90
33699;DHT22;20032;52.436;13.312;2023-12-07T12:25:22;2.70;99.90
33699;DHT22;20032;52.436;13.312;2023-12-07T12:27:52;2.70;99.90
33699;DHT22;20032;52.436;13.312;2023-12-07T12:30:18;2.70;99.90
33699;DHT22;20032;52.436;13.312;2023-12-07T12:32:45;2.70;99.90
33699;DHT22;20032;52.436;13.312;2023-12-07T12:35:11;2.80;99.90
33699;DHT22;20032;52.436;13.312;2023-12-07T12:37:39;2.80;99.90
33699;DHT22;20032;52.436;13.312;2023-12-07T12:40:06;2.80;99.90
33699;DHT22;20032;52.436;13.312;2023-12-07T12:42:32;2.80;99.90
33699;DHT22;20032;52.436;13.312;2023-12-07T12:44:58;2.90;99.90
33699;DHT22;20032;52.436;13.312;2023-12-07T12:47:24;2.90;99.90
33699;DHT22;20032;52.436;13.312;2023-12-07T12:49:50;2.90;99.90
33699;DHT22;20032;52.436;13.312;2023-12-07T12:52:16;2.90;99.90
33699;DHT22;20032;52.436;13.312;2023-12-07T12:54:43;2.90;99.90
33699;DHT22;20032;52.436;13.312;2023-12-07T12:57:09;3.00;99.90
33699;DHT22;20032;52.436;13.312;2023-12-07T12:59:35;2.90;99.90
33699;DHT22;20032;52.436;13.312;2023-12-07T13:02:00;2.90;99.90
33699;DHT22;20032;52.436;13.312;2023-12-07T13:04:27;3.00;99.90
33699;DHT22;20032;52.436;13.312;2023-12-07T13:06:53;2.90;99.90
33699;DHT22;20032;52.436;13.312;2023-12-07T13:09:18;3.00;99.90
33699;DHT22;20032;52.436;13.312;2023-12-07T13:11:45;3.00;99.90
33699;DHT22;20032;52.436;13.312;2023-12-07T13:14:12;3.00;99.90
33699;DHT22;20032;52.436;13.312;2023-12-07T13:16:38;3.00;99.90
33699;DHT22;20032;52.436;13.312;2023-12-07T13:19:03;3.00;99.90
33699;DHT22;20032;52.436;13.312;2023-12-07T13:21:29;3.10;99.90
33699;DHT22;20032;52.436;13.312;2023-12-07T13:23:54;3.00;99.90
33699;DHT22;20032;52.436;13.312;2023-12-07T13:26:21;3.00;99.90
33699;DHT22;20032;52.436;13.312;2023-12-07T13:28:48;3.10;99.90
33699;DHT22;20032;52.436;13.312;2023-12-07T13:31:14;3.10;99.90
33699;DHT22;20032;52.436;13.312;2023-12-07T13:33:39;3.10;99.90
33699;DHT22;20032;52.436;13.312;2023-12-07T13:36:06;3.10;99.90
33699;DHT22;20032;52.436;13.312;2023-12-07T13:38:32;3.10;99.90
33699;DHT22;20032;52.436;13.312;2023-12-07T13:40:58;3.10;99.90
33699;DHT22;20032;52.436;13.312;2023-12-07T13:43:26;3.10;99.90
33699;DHT22;20032;52.436;13.312;2023-12-07T13:45:52;3.10;99.90
33699;DHT22;20032;52.436;13.312;2023-12-07T13:48:18;3.10;99.90
33699;DHT22;20032;52.436;13.312;2023-12-07T13:50:44;3.00;99.90
33699;DHT22;20032;52.436;13.312;2023-12-07T13:53:09;3.00;99.90
33699;DHT22;20032;52.436;13.312;2023-12-07T13:55:36;2.90;99.90
33699;DHT22;20032;52.436;13.312;2023-12-07T13:58:02;3.00;99.90
33699;DHT22;20032;52.436;13.312;2023-12-07T14:00:28;3.00;99.90
33699;DHT22;20032;52.436;13.312;2023-12-07T14:02:54;3.00;99.90
33699;DHT22;20032;52.436;13.312;2023-12-07T14:05:19;3.00;99.90
33699;DHT22;20032;52.436;13.312;2023-12-07T14:07:45;2.90;99.90
33699;DHT22;20032;52.436;13.312;2023-12-07T14:10:11;2.90;99.90
33699;DHT22;20032;52.436;13.312;2023-12-07T14:12:37;2.80;99.90
33699;DHT22;20032;52.436;13.312;2023-12-07T14:15:03;2.80;99.90
33699;DHT22;20032;52.436;13.312;2023-12-07T14:17:28;2.80;99.90
33699;DHT22;20032;52.436;13.312;2023-12-07T14:20:03;2.80;99.90
33699;DHT22;20032;52.436;13.312;2023-12-07T14:22:29;2.80;99.90
33699;DHT22;20032;52.436;13.312;2023-12-07T14:24:55;2.80;99.90
33699;DHT22;20032;52.436;13.312;2023-12-07T14:27:20;2.90;99.90
33699;DHT22;20032;52.436;13.312;2023-12-07T14:29:46;2.90;99.90
33699;DHT22;20032;52.436;13.312;2023-12-07T14:32:12;2.90;99.90
33699;DHT22;20032;52.436;13.312;2023-12-07T14:34:37;2.90;99.90
33699;DHT22;20032;52.436;13.312;2023-12-07T14:37:03;2.80;99.90
33699;DHT22;20032;52.436;13.312;2023-12-07T14:39:30;2.90;99.90
33699;DHT22;20032;52.436;13.312;2023-12-07T14:41:56;2.90;99.90
33699;DHT22;20032;52.436;13.312;2023-12-07T14:44:22;2.90;99.90
33699;DHT22;20032;52.436;13.312;2023-12-07T14:46:48;3.00;99.90
33699;DHT22;20032;52.436;13.312;2023-12-07T14:49:15;2.90;99.90
33699;DHT22;20032;52.436;13.312;2023-12-07T14:51:40;2.90;99.90
33699;DHT22;20032;52.436;13.312;2023-12-07T14:54:06;2.90;99.90
33699;DHT22;20032;52.436;13.312;2023-12-07T14:56:33;2.90;99.90
33699;DHT22;20032;52.436;13.312;2023-12-07T14:59:00;3.00;99.90
33699;DHT22;20032;52.436;13.312;2023-12-07T15:01:26;3.00;99.90
33699;DHT22;20032;52.436;13.312;2023-12-07T15:03:51;3.00;99.90
33699;DHT22;20032;52.436;13.312;2023-12-07T15:06:17;2.90;99.90
33699;DHT22;20032;52.436;13.312;2023-12-07T15:08:43;2.80;99.90
33699;DHT22;20032;52.436;13.312;2023-12-07T15:11:09;2.80;99.90
33699;DHT22;20032;52.436;13.312;2023-12-07T15:13:35;2.90;99.90
33699;DHT22;20032;52.436;13.312;2023-12-07T15:49:26;2.70;99.90
33699;DHT22;20032;52.436;13.312;2023-12-07T15:51:51;2.70;99.90
33699;DHT22;20032;52.436;13.312;2023-12-07T15:54:17;2.80;99.90
33699;DHT22;20032;52.436;13.312;2023-12-07T15:56:42;2.80;99.90